createdAt,value
2018-07-31T00:00:33.304Z,23.00
2018-07-31T00:03:03.339Z,23.00
2018-07-31T00:05:33.373Z,22.90
2018-07-31T00:08:03.369Z,23.20
2018-07-31T00:10:33.478Z,23.20
2018-07-31T00:13:03.410Z,23.40
2018-07-31T00:15:33.482Z,23.30
2018-07-31T00:18:03.439Z,23.10
2018-07-31T00:20:33.519Z,22.90
2018-07-31T00:23:03.637Z,23.00
2018-07-31T00:25:33.654Z,23.00
2018-07-31T00:28:03.664Z,23.10
2018-07-31T00:30:33.594Z,23.20
2018-07-31T00:33:03.797Z,23.10
2018-07-31T00:35:33.733Z,23.10
2018-07-31T00:38:03.988Z,23.10
2018-07-31T00:40:33.953Z,23.00
2018-07-31T00:43:04.041Z,22.80
2018-07-31T00:45:34.092Z,22.90
2018-07-31T00:48:04.155Z,23.10
2018-07-31T00:50:33.898Z,23.20
2018-07-31T00:53:04.183Z,23.00
2018-07-31T00:55:33.950Z,22.90
2018-07-31T00:58:04.158Z,22.80
2018-07-31T01:00:34.135Z,22.90
2018-07-31T01:03:04.035Z,22.90
2018-07-31T01:05:34.407Z,22.80
2018-07-31T01:08:04.219Z,22.70
2018-07-31T01:10:34.210Z,22.60
2018-07-31T01:13:04.308Z,22.50
2018-07-31T01:15:34.250Z,22.50
2018-07-31T01:18:04.296Z,22.50
2018-07-31T01:20:34.378Z,22.60
2018-07-31T01:23:04.429Z,22.60
2018-07-31T01:25:34.458Z,22.50
2018-07-31T01:28:04.418Z,22.50
2018-07-31T01:30:34.546Z,22.40
2018-07-31T01:33:04.675Z,22.40
2018-07-31T01:35:34.631Z,22.40
2018-07-31T01:38:04.575Z,22.40
2018-07-31T01:40:34.747Z,22.40
2018-07-31T01:43:04.958Z,22.30
2018-07-31T01:45:34.767Z,22.30
2018-07-31T01:48:04.802Z,22.30
2018-07-31T01:50:34.945Z,22.30
2018-07-31T01:53:04.856Z,22.30
2018-07-31T01:55:34.998Z,22.30
2018-07-31T01:58:04.856Z,22.30
2018-07-31T02:00:34.952Z,22.30
2018-07-31T02:03:05.074Z,22.40
2018-07-31T02:05:35.157Z,22.40
2018-07-31T02:08:05.278Z,22.40
2018-07-31T02:10:35.154Z,22.50
2018-07-31T02:13:05.297Z,22.50
2018-07-31T02:15:35.411Z,22.50
2018-07-31T02:18:05.334Z,22.50
2018-07-31T02:20:38.697Z,22.60
2018-07-31T02:23:08.795Z,22.60
2018-07-31T02:25:38.090Z,22.50
2018-07-31T02:28:07.309Z,22.50
2018-07-31T02:30:36.411Z,22.50
2018-07-31T02:33:05.606Z,22.50
2018-07-31T02:35:35.662Z,22.50
2018-07-31T02:38:05.719Z,21.90
2018-07-31T02:40:35.752Z,21.70
2018-07-31T02:43:05.604Z,21.80
2018-07-31T02:45:35.746Z,21.80
2018-07-31T02:48:05.780Z,22.20
2018-07-31T02:50:35.770Z,22.30
2018-07-31T02:53:05.851Z,22.20
2018-07-31T02:55:35.910Z,22.10
2018-07-31T02:58:05.884Z,21.80
2018-07-31T03:00:35.958Z,21.70
2018-07-31T03:03:05.957Z,21.60
2018-07-31T03:05:36.070Z,21.60
2018-07-31T03:08:06.100Z,21.60
2018-07-31T03:10:36.164Z,21.80
2018-07-31T03:13:06.114Z,21.70
2018-07-31T03:15:36.104Z,22.10
2018-07-31T03:18:06.183Z,22.10
2018-07-31T03:20:36.254Z,21.90
2018-07-31T03:23:06.316Z,21.70
2018-07-31T03:25:36.305Z,21.60
2018-07-31T03:28:06.478Z,21.40
2018-07-31T03:30:36.342Z,21.40
2018-07-31T03:33:06.508Z,21.30
2018-07-31T03:35:36.436Z,21.40
2018-07-31T03:38:06.598Z,21.30
2018-07-31T03:40:36.516Z,21.20
2018-07-31T03:43:06.590Z,21.20
2018-07-31T03:45:36.704Z,21.10
2018-07-31T03:48:06.629Z,21.10
2018-07-31T03:50:36.690Z,21.00
2018-07-31T03:53:06.754Z,21.10
2018-07-31T03:55:36.678Z,21.10
2018-07-31T03:58:06.758Z,21.10
2018-07-31T04:00:36.823Z,21.20
2018-07-31T04:03:06.859Z,20.90
2018-07-31T04:05:36.850Z,20.70
2018-07-31T04:08:06.847Z,20.70
2018-07-31T04:10:36.987Z,20.50
2018-07-31T04:13:07.042Z,20.50
2018-07-31T04:15:37.078Z,20.60
2018-07-31T04:18:07.051Z,20.70
2018-07-31T04:20:37.153Z,20.70
2018-07-31T04:23:07.277Z,20.70
2018-07-31T04:25:37.177Z,20.70
2018-07-31T04:28:07.190Z,21.00
2018-07-31T04:30:37.319Z,21.10
2018-07-31T04:33:07.470Z,21.00
2018-07-31T04:35:40.209Z,21.10
2018-07-31T04:38:09.302Z,21.10
2018-07-31T04:40:39.285Z,21.10
2018-07-31T04:43:08.470Z,21.10
2018-07-31T04:45:37.626Z,21.10
2018-07-31T04:48:07.490Z,21.30
2018-07-31T04:50:37.527Z,21.40
2018-07-31T04:53:07.733Z,21.50
2018-07-31T04:55:37.779Z,21.50
2018-07-31T04:58:07.739Z,21.60
2018-07-31T05:00:37.762Z,21.70
2018-07-31T05:03:07.849Z,22.10
2018-07-31T05:05:37.013Z,22.40
2018-07-31T05:08:06.115Z,22.70
2018-07-31T05:10:35.254Z,22.60
2018-07-31T05:13:04.860Z,22.60
2018-07-31T05:15:34.077Z,22.70
2018-07-31T05:18:03.173Z,22.70
2018-07-31T05:20:32.322Z,22.60
2018-07-31T05:23:01.450Z,22.50
2018-07-31T05:25:30.590Z,22.60
2018-07-31T05:27:59.767Z,22.80
2018-07-31T05:30:28.813Z,23.00
2018-07-31T05:32:57.950Z,23.10
2018-07-31T05:35:27.230Z,23.30
2018-07-31T05:37:56.327Z,23.60
2018-07-31T05:40:25.436Z,23.50
2018-07-31T05:42:54.582Z,23.60
2018-07-31T05:45:25.322Z,23.60
2018-07-31T05:47:54.447Z,23.60
2018-07-31T05:50:23.600Z,23.80
2018-07-31T05:52:53.150Z,23.70
2018-07-31T05:55:22.270Z,23.80
2018-07-31T05:57:51.415Z,23.80
2018-07-31T06:00:20.515Z,23.80
2018-07-31T06:02:49.651Z,23.90
2018-07-31T06:05:18.725Z,24.00
2018-07-31T06:07:47.821Z,24.00
2018-07-31T06:10:16.906Z,24.10
2018-07-31T06:12:46.047Z,24.10
2018-07-31T06:15:15.212Z,24.10
2018-07-31T06:17:47.201Z,24.20
2018-07-31T06:20:17.098Z,24.20
2018-07-31T06:22:47.666Z,24.30
2018-07-31T06:25:16.788Z,24.30
2018-07-31T06:27:45.958Z,24.40
2018-07-31T06:30:15.489Z,24.60
2018-07-31T06:32:44.674Z,24.70
2018-07-31T06:35:13.724Z,24.90
2018-07-31T06:37:42.834Z,25.10
2018-07-31T06:40:11.963Z,25.20
2018-07-31T06:42:41.170Z,25.40
2018-07-31T06:45:10.227Z,25.60
2018-07-31T06:47:39.262Z,25.70
2018-07-31T06:50:08.266Z,25.80
2018-07-31T06:52:37.394Z,25.80
2018-07-31T06:55:06.538Z,25.90
2018-07-31T06:57:35.554Z,26.00
2018-07-31T07:00:05.304Z,25.80
2018-07-31T07:02:34.454Z,25.80
2018-07-31T07:05:03.605Z,25.90
2018-07-31T07:07:32.776Z,25.90
2018-07-31T07:10:01.887Z,26.10
2018-07-31T07:12:31.023Z,26.50
2018-07-31T07:15:00.087Z,26.50
2018-07-31T07:17:29.250Z,26.50
2018-07-31T07:19:58.477Z,26.80
2018-07-31T07:22:27.688Z,26.80
2018-07-31T07:24:56.683Z,26.80
2018-07-31T07:48:58.851Z,27.80
2018-07-31T07:51:27.830Z,27.90
2018-07-31T07:53:56.990Z,27.80
2018-07-31T07:56:28.396Z,27.70
2018-07-31T07:58:58.138Z,27.80
2018-07-31T08:01:27.555Z,27.90
2018-07-31T08:03:56.771Z,27.90
2018-07-31T08:06:25.830Z,28.00
2018-07-31T08:08:55.378Z,28.00
2018-07-31T08:11:24.628Z,28.20
2018-07-31T08:13:53.755Z,28.30
2018-07-31T08:16:23.013Z,28.40
2018-07-31T08:18:53.942Z,28.50
2018-07-31T08:21:23.994Z,28.60
2018-07-31T08:23:54.167Z,28.70
2018-07-31T08:26:23.506Z,28.60
2018-07-31T08:28:54.450Z,28.60
2018-07-31T08:31:24.386Z,28.60
2018-07-31T08:33:53.591Z,28.70
2018-07-31T08:36:23.514Z,28.80
2018-07-31T08:38:52.597Z,29.00
2018-07-31T08:41:22.022Z,29.10
2018-07-31T08:43:51.182Z,29.30
2018-07-31T08:46:20.300Z,29.40
2018-07-31T08:48:49.378Z,29.50
2018-07-31T08:51:19.109Z,29.60
2018-07-31T08:53:48.186Z,29.10
2018-07-31T08:56:17.266Z,29.10
2018-07-31T08:58:46.402Z,29.40
2018-07-31T09:01:15.590Z,29.60
2018-07-31T09:03:44.640Z,29.60
2018-07-31T09:06:13.725Z,29.80
2018-07-31T09:08:43.019Z,29.80
2018-07-31T09:11:12.235Z,29.80
2018-07-31T09:13:44.079Z,29.90
2018-07-31T09:16:13.218Z,30.10
2018-07-31T09:18:42.338Z,30.20
2018-07-31T09:21:12.403Z,30.30
2018-07-31T09:23:42.412Z,30.50
2018-07-31T09:26:12.462Z,30.70
2018-07-31T09:28:42.522Z,30.60
2018-07-31T09:31:12.522Z,30.70
2018-07-31T09:33:43.050Z,30.80
2018-07-31T09:36:12.410Z,30.80
2018-07-31T09:38:42.510Z,30.80
2018-07-31T09:41:12.575Z,30.80
2018-07-31T09:43:42.614Z,31.00
2018-07-31T09:46:12.939Z,31.10
2018-07-31T09:48:42.687Z,31.20
2018-07-31T09:51:12.680Z,31.30
2018-07-31T09:53:42.741Z,31.30
2018-07-31T09:56:12.667Z,31.30
2018-07-31T09:58:42.718Z,31.30
2018-07-31T10:01:18.275Z,31.50
2018-07-31T10:03:47.802Z,31.60
2018-07-31T10:06:17.039Z,31.70
2018-07-31T10:08:46.185Z,31.80
2018-07-31T10:11:15.354Z,31.70
2018-07-31T10:13:44.682Z,31.90
2018-07-31T10:16:13.842Z,31.70
2018-07-31T10:18:43.028Z,31.50
2018-07-31T10:21:13.037Z,31.40
2018-07-31T10:23:42.961Z,31.30
2018-07-31T10:26:12.945Z,31.40
2018-07-31T10:28:42.950Z,31.40
2018-07-31T10:31:13.395Z,31.50
2018-07-31T10:33:43.141Z,31.60
2018-07-31T10:36:13.107Z,31.70
2018-07-31T10:38:43.218Z,31.60
2018-07-31T10:41:13.243Z,31.70
2018-07-31T10:43:43.229Z,31.90
2018-07-31T10:46:13.121Z,31.90
2018-07-31T10:48:43.470Z,32.10
2018-07-31T10:51:13.326Z,32.20
2018-07-31T10:53:43.352Z,32.30
2018-07-31T10:56:13.389Z,31.90
2018-07-31T10:58:43.448Z,32.20
2018-07-31T11:01:13.333Z,32.20
2018-07-31T11:03:42.447Z,32.30
2018-07-31T11:06:11.645Z,32.60
2018-07-31T11:08:40.774Z,32.50
2018-07-31T11:11:09.858Z,32.60
2018-07-31T11:13:39.050Z,33.00
2018-07-31T11:16:08.109Z,33.50
2018-07-31T11:18:37.494Z,33.60
2018-07-31T11:21:06.709Z,33.90
2018-07-31T11:23:35.777Z,33.70
2018-07-31T11:26:04.834Z,33.90
2018-07-31T11:28:33.921Z,34.30
2018-07-31T11:31:03.039Z,35.10
2018-07-31T11:33:32.178Z,34.90
2018-07-31T11:36:01.242Z,34.90
2018-07-31T11:38:30.459Z,35.10
2018-07-31T11:40:59.429Z,35.60
2018-07-31T11:43:28.522Z,36.00
2018-07-31T11:45:57.631Z,36.20
2018-07-31T11:48:27.456Z,36.10
2018-07-31T11:50:56.565Z,36.00
2018-07-31T11:53:25.877Z,36.30
2018-07-31T11:55:55.049Z,36.20
2018-07-31T11:58:24.039Z,35.90
2018-07-31T12:00:53.154Z,36.20
2018-07-31T12:03:22.254Z,36.70
2018-07-31T12:05:51.312Z,37.30
2018-07-31T12:08:20.465Z,37.60
2018-07-31T12:10:49.820Z,37.00
2018-07-31T12:13:18.894Z,36.90
2018-07-31T12:15:48.012Z,37.20
2018-07-31T12:18:17.078Z,37.40
2018-07-31T12:20:46.207Z,37.40
2018-07-31T12:23:15.298Z,37.30
2018-07-31T12:25:44.626Z,37.50
2018-07-31T12:28:13.721Z,37.80
2018-07-31T12:30:43.756Z,38.10
2018-07-31T12:33:12.971Z,37.90
2018-07-31T12:35:42.061Z,37.70
2018-07-31T12:38:11.132Z,37.80
2018-07-31T12:40:40.264Z,37.60
2018-07-31T12:43:09.518Z,37.30
2018-07-31T12:45:38.714Z,37.50
2018-07-31T12:48:07.815Z,37.80
2018-07-31T12:50:36.825Z,38.10
2018-07-31T12:53:06.229Z,38.30
2018-07-31T12:55:35.421Z,38.80
2018-07-31T12:58:04.459Z,38.10
2018-07-31T13:00:33.637Z,38.60
2018-07-31T13:03:03.039Z,38.60
2018-07-31T13:05:32.293Z,38.60
2018-07-31T13:08:01.462Z,39.00
2018-07-31T13:10:30.607Z,38.80
2018-07-31T13:12:59.730Z,39.10
2018-07-31T13:15:28.762Z,39.10
2018-07-31T13:17:57.886Z,38.90
2018-07-31T13:20:27.214Z,39.00
2018-07-31T13:22:56.429Z,38.80
2018-07-31T13:25:25.660Z,38.90
2018-07-31T13:27:54.759Z,38.60
2018-07-31T13:30:23.915Z,38.60
2018-07-31T13:32:52.991Z,37.90
2018-07-31T13:35:22.174Z,37.80
2018-07-31T13:37:51.302Z,37.20
2018-07-31T13:40:20.431Z,36.50
2018-07-31T13:42:49.654Z,35.70
2018-07-31T13:45:18.904Z,35.10
2018-07-31T13:47:51.470Z,34.60
2018-07-31T13:50:20.605Z,34.30
2018-07-31T13:52:49.799Z,34.30
2018-07-31T13:55:18.881Z,33.70
2018-07-31T13:57:47.850Z,33.30
2018-07-31T14:00:17.864Z,33.50
2018-07-31T14:02:46.969Z,33.60
2018-07-31T14:05:16.151Z,33.50
2018-07-31T14:07:45.326Z,33.20
2018-07-31T14:10:14.693Z,33.00
2018-07-31T14:12:43.796Z,33.00
2018-07-31T14:15:12.874Z,32.90
2018-07-31T14:17:42.433Z,32.70
2018-07-31T14:20:11.491Z,32.60
2018-07-31T14:22:41.075Z,32.90
2018-07-31T14:25:10.140Z,32.70
2018-07-31T14:27:39.467Z,32.60
2018-07-31T14:30:08.694Z,32.90
2018-07-31T14:32:37.910Z,32.80
2018-07-31T14:35:07.179Z,32.70
2018-07-31T14:37:36.483Z,32.60
2018-07-31T14:40:05.634Z,32.70
2018-07-31T14:42:34.793Z,32.60
2018-07-31T14:45:03.825Z,32.40
2018-07-31T14:47:32.995Z,32.50
2018-07-31T14:50:02.125Z,32.50
2018-07-31T14:52:31.577Z,32.60
2018-07-31T14:55:00.631Z,32.60
2018-07-31T14:57:29.769Z,32.60
2018-07-31T14:59:59.022Z,32.70
2018-07-31T15:02:28.189Z,32.90
2018-07-31T15:04:58.830Z,32.80
2018-07-31T15:07:28.312Z,32.80
2018-07-31T15:09:57.850Z,33.00
2018-07-31T15:12:27.344Z,33.40
2018-07-31T15:14:56.533Z,33.50
2018-07-31T15:17:25.563Z,33.80
2018-07-31T15:19:54.706Z,34.10
2018-07-31T15:22:23.872Z,34.20
2018-07-31T15:24:52.910Z,34.40
2018-07-31T15:27:25.630Z,34.50
2018-07-31T15:29:56.128Z,34.60
2018-07-31T15:32:25.338Z,34.00
2018-07-31T15:34:54.461Z,33.80
2018-07-31T15:37:23.639Z,33.90
2018-07-31T15:39:52.879Z,33.80
2018-07-31T15:42:22.022Z,33.70
2018-07-31T15:44:52.378Z,33.70
2018-07-31T15:47:21.710Z,33.90
2018-07-31T15:49:50.894Z,33.90
2018-07-31T15:52:19.929Z,33.90
2018-07-31T15:54:49.926Z,33.70
2018-07-31T15:57:19.174Z,33.60
2018-07-31T15:59:49.048Z,33.60
2018-07-31T16:02:19.529Z,33.60
2018-07-31T16:04:49.757Z,33.60
2018-07-31T16:07:18.954Z,33.70
2018-07-31T16:09:50.417Z,33.60
2018-07-31T16:12:19.989Z,33.50
2018-07-31T16:14:51.610Z,33.30
2018-07-31T16:17:22.793Z,33.20
2018-07-31T16:19:52.058Z,33.50
2018-07-31T16:22:26.111Z,33.80
2018-07-31T16:24:57.372Z,33.60
2018-07-31T16:27:27.622Z,33.70
2018-07-31T16:29:56.761Z,33.90
2018-07-31T16:32:27.122Z,34.00
2018-07-31T16:34:56.190Z,33.90
2018-07-31T16:37:25.567Z,34.00
2018-07-31T16:39:54.670Z,34.10
2018-07-31T16:42:23.710Z,34.20
2018-07-31T16:44:52.746Z,34.30
2018-07-31T16:47:21.794Z,34.40
2018-07-31T16:49:51.104Z,34.40
2018-07-31T16:52:20.246Z,34.50
2018-07-31T16:54:49.451Z,34.70
2018-07-31T16:57:18.794Z,34.60
2018-07-31T16:59:48.017Z,34.60
2018-07-31T17:02:17.126Z,34.50
2018-07-31T17:04:46.894Z,34.50
2018-07-31T17:07:17.441Z,34.30
2018-07-31T17:09:51.333Z,34.10
2018-07-31T17:12:23.225Z,33.90
2018-07-31T17:14:53.818Z,33.90
2018-07-31T17:17:22.919Z,33.70
2018-07-31T17:20:00.434Z,33.60
2018-07-31T17:22:46.992Z,33.40
2018-07-31T17:25:16.225Z,33.30
2018-07-31T17:27:45.546Z,33.00
2018-07-31T17:30:15.073Z,32.80
2018-07-31T17:32:44.276Z,32.70
2018-07-31T17:35:15.016Z,32.60
2018-07-31T17:37:44.195Z,32.30
2018-07-31T17:40:19.165Z,32.10
2018-07-31T17:42:49.198Z,32.10
2018-07-31T17:45:18.243Z,32.20
2018-07-31T17:47:47.570Z,32.10
2018-07-31T17:50:16.744Z,32.00
2018-07-31T17:52:45.932Z,32.00
2018-07-31T17:55:14.965Z,31.90
2018-07-31T17:57:45.210Z,31.80
2018-07-31T18:00:14.370Z,31.60
2018-07-31T18:02:43.513Z,31.50
2018-07-31T18:05:12.634Z,31.40
2018-07-31T18:07:42.303Z,31.30
2018-07-31T18:10:11.482Z,31.20
2018-07-31T18:12:40.985Z,31.00
2018-07-31T18:15:10.176Z,31.00
2018-07-31T18:17:39.951Z,31.00
2018-07-31T18:20:10.047Z,30.90
2018-07-31T18:22:40.226Z,30.80
2018-07-31T18:25:09.293Z,30.70
2018-07-31T18:27:38.413Z,30.60
2018-07-31T18:30:07.502Z,30.40
2018-07-31T18:32:36.673Z,30.20
2018-07-31T18:35:06.850Z,30.10
2018-07-31T18:37:37.060Z,29.90
2018-07-31T18:40:06.573Z,29.50
2018-07-31T18:42:35.796Z,29.30
2018-07-31T18:45:05.370Z,29.10
2018-07-31T18:47:34.546Z,28.90
2018-07-31T18:50:03.659Z,28.70
2018-07-31T18:52:33.037Z,28.50
2018-07-31T18:55:02.090Z,28.40
2018-07-31T18:57:31.201Z,28.20
2018-07-31T19:00:00.407Z,28.00
2018-07-31T19:02:29.580Z,27.90
2018-07-31T19:05:01.174Z,27.80
2018-07-31T19:07:31.582Z,27.80
2018-07-31T19:10:03.393Z,27.60
2018-07-31T19:12:32.489Z,27.50
2018-07-31T19:15:01.708Z,27.40
2018-07-31T19:17:30.791Z,27.30
2018-07-31T19:19:59.958Z,27.40
2018-07-31T19:22:29.098Z,27.30
2018-07-31T19:24:58.188Z,27.20
2018-07-31T19:27:27.318Z,27.20
2018-07-31T19:29:56.422Z,27.10
2018-07-31T19:32:25.505Z,27.00
2018-07-31T19:34:54.653Z,27.00
2018-07-31T19:37:23.802Z,27.00
2018-07-31T19:39:53.054Z,27.00
2018-07-31T19:42:22.339Z,27.10
2018-07-31T19:44:51.758Z,27.10
2018-07-31T19:47:20.834Z,27.20
2018-07-31T19:49:50.887Z,27.30
2018-07-31T19:52:21.642Z,27.40
2018-07-31T19:54:52.528Z,27.40
2018-07-31T19:57:22.754Z,27.30
2018-07-31T19:59:53.048Z,27.20
2018-07-31T20:02:22.052Z,27.00
2018-07-31T20:04:51.232Z,26.90
2018-07-31T20:07:20.289Z,26.80
2018-07-31T20:09:49.455Z,26.60
2018-07-31T20:12:18.545Z,26.40
2018-07-31T20:14:47.658Z,26.30
2018-07-31T20:17:16.745Z,26.30
2018-07-31T20:19:45.846Z,26.50
2018-07-31T20:22:14.996Z,26.60
2018-07-31T20:24:44.118Z,26.80
2018-07-31T20:27:13.187Z,26.90
2018-07-31T20:29:42.733Z,27.00
2018-07-31T20:32:12.022Z,27.00
2018-07-31T20:34:41.947Z,27.00
2018-07-31T20:37:11.551Z,27.40
2018-07-31T20:39:40.770Z,27.70
2018-07-31T20:42:26.696Z,28.00
2018-07-31T20:44:55.994Z,28.10
2018-07-31T20:47:25.539Z,28.20
2018-07-31T20:49:57.257Z,28.10
2018-07-31T20:52:27.198Z,27.80
2018-07-31T20:54:56.707Z,27.60
2018-07-31T20:57:25.844Z,27.40
2018-07-31T20:59:55.231Z,27.30
2018-07-31T21:02:24.534Z,27.20
2018-07-31T21:04:53.987Z,27.10
2018-07-31T21:07:24.767Z,27.10
2018-07-31T21:09:53.914Z,27.10
2018-07-31T21:12:23.070Z,27.10
2018-07-31T21:14:52.272Z,27.20
2018-07-31T21:17:21.769Z,27.30
2018-07-31T21:19:51.631Z,27.70
2018-07-31T21:22:20.694Z,27.40
2018-07-31T21:24:50.176Z,27.20
2018-07-31T21:27:19.141Z,27.10
2018-07-31T21:29:48.348Z,27.10
2018-07-31T21:32:17.578Z,27.00
2018-07-31T21:34:46.986Z,27.10
2018-07-31T21:37:16.358Z,27.00
2018-07-31T21:39:45.658Z,27.00
2018-07-31T21:42:14.758Z,26.90
2018-07-31T21:44:43.833Z,26.70
2018-07-31T21:47:13.079Z,26.50
2018-07-31T21:49:42.588Z,26.40
2018-07-31T21:52:11.818Z,26.30
2018-07-31T21:54:40.946Z,26.30
2018-07-31T21:57:10.330Z,26.30
2018-07-31T21:59:40.491Z,26.30
2018-07-31T22:02:09.527Z,26.30
2018-07-31T22:04:38.660Z,26.30
2018-07-31T22:07:07.693Z,26.30
2018-07-31T22:09:43.349Z,26.30
2018-07-31T22:12:12.626Z,26.30
2018-07-31T22:14:42.386Z,26.30
2018-07-31T22:17:11.818Z,26.20
2018-07-31T22:19:41.279Z,26.20
2018-07-31T22:22:10.353Z,26.30
2018-07-31T22:24:39.485Z,26.70
2018-07-31T22:27:08.585Z,26.70
2018-07-31T22:29:37.790Z,26.60
2018-07-31T22:32:06.936Z,26.30
2018-07-31T22:34:36.057Z,26.10
2018-07-31T22:37:07.219Z,26.00
2018-07-31T22:39:36.772Z,25.90
2018-07-31T22:42:05.865Z,25.90
2018-07-31T22:44:35.049Z,25.80
2018-07-31T22:47:04.195Z,25.80
2018-07-31T22:49:33.303Z,25.80
2018-07-31T22:52:02.494Z,25.60
2018-07-31T22:54:31.621Z,25.50
2018-07-31T22:57:00.754Z,25.30
2018-07-31T22:59:29.874Z,25.20
2018-07-31T23:01:58.967Z,25.20
2018-07-31T23:04:28.085Z,25.30
2018-07-31T23:06:57.130Z,25.30
2018-07-31T23:09:27.162Z,25.30
2018-07-31T23:11:56.351Z,25.10
2018-07-31T23:14:25.566Z,25.00
2018-07-31T23:16:54.712Z,24.90
2018-07-31T23:19:24.633Z,25.00
2018-07-31T23:21:53.694Z,25.00
2018-07-31T23:24:22.810Z,25.00
2018-07-31T23:26:51.962Z,25.00
2018-07-31T23:29:21.078Z,25.00
2018-07-31T23:31:50.259Z,25.00
2018-07-31T23:34:19.389Z,25.20
2018-07-31T23:36:48.453Z,25.40
2018-07-31T23:39:17.486Z,25.20
2018-07-31T23:41:46.583Z,25.10
2018-07-31T23:44:15.753Z,25.00
2018-07-31T23:46:44.878Z,25.00
2018-07-31T23:49:13.957Z,24.90
2018-07-31T23:51:43.074Z,24.90
2018-07-31T23:54:12.175Z,24.80
2018-07-31T23:56:41.262Z,24.80
2018-07-31T23:59:10.482Z,24.80
